Time;durP1;ratioP1;P1;durP2;ratioP2;P2;SDS_P1;SDS_P2;PMS_P1;PMS_P2;Temp;Humidity;BMP_temperature;BMP_pressure;BME280_temperature;BME280_humidity;BME280_pressure;Samples;Min_cycle;Max_cycle;Signal;HPM_P1;HPM_P2
2022/11/17 00:01:09;;;;;;;2.10;0.90;;;;;;;;;;1710280;81;21736;-50
2022/11/17 00:03:36;;;;;;;0.47;0.40;;;;;;;;;;1713454;81;21049;-50
2022/11/17 00:06:04;;;;;;;0.60;0.50;;;;;;;;;;1712531;81;21111;-50
2022/11/17 00:08:31;;;;;;;0.60;0.50;;;;;;;;;;1710129;81;21069;-50
2022/11/17 00:11:00;;;;;;;0.93;0.50;;;;;;;;;;1708209;81;21720;-50
2022/11/17 00:16:13;;;;;;;0.70;0.50;;;;;;;;;;1713453;81;21531;-50
2022/11/17 00:21:22;;;;;;;0.50;0.40;;;;;;;;;;1676635;81;21585;-50
2022/11/17 00:23:48;;;;;;;0.73;0.40;;;;;;;;;;1709416;81;21833;-49
2022/11/17 00:26:22;;;;;;;1.90;0.40;;;;;;;;;;1696575;81;21065;-49
2022/11/17 00:28:53;;;;;;;0.63;0.50;;;;;;;;;;1690727;82;21122;-49
2022/11/17 00:34:23;;;;;;;0.53;0.40;;;;;;;;;;1692237;82;21881;-52
2022/11/17 00:36:51;;;;;;;0.70;0.40;;;;;;;;;;1694726;82;21838;-52
2022/11/17 00:39:18;;;;;;;0.40;0.33;;;;;;;;;;1689808;82;21095;-52
2022/11/17 00:41:44;;;;;;;0.40;0.40;;;;;;;;;;1698072;82;21440;-52
2022/11/17 00:44:11;;;;;;;1.03;0.50;;;;;;;;;;1694262;82;21530;-49
2022/11/17 00:46:37;;;;;;;0.60;0.50;;;;;;;;;;1697221;82;21111;-49
2022/11/17 00:49:06;;;;;;;0.70;0.50;;;;;;;;;;1696397;82;21049;-49
2022/11/17 00:51:32;;;;;;;0.80;0.60;;;;;;;;;;1700029;82;21066;-49
2022/11/17 00:53:59;;;;;;;0.50;0.43;;;;;;;;;;1694284;82;21518;-49
2022/11/17 00:56:27;;;;;;;0.70;0.50;;;;;;;;;;1697300;82;21450;-49
2022/11/17 00:58:53;;;;;;;0.57;0.50;;;;;;;;;;1694461;82;21318;-49
2022/11/17 01:01:20;;;;;;;0.60;0.43;;;;;;;;;;1695001;82;21896;-49
2022/11/17 01:03:46;;;;;;;0.50;0.40;;;;;;;;;;1695566;82;21092;-49
2022/11/17 01:06:15;;;;;;;1.47;0.50;;;;;;;;;;1694612;82;21499;-49
2022/11/17 01:08:42;;;;;;;0.63;0.50;;;;;;;;;;1689707;82;21116;-49
2022/11/17 01:11:10;;;;;;;0.60;0.40;;;;;;;;;;1695079;82;21049;-50
2022/11/17 01:13:38;;;;;;;0.90;0.60;;;;;;;;;;1695525;82;21827;-49
2022/11/17 01:16:07;;;;;;;0.80;0.70;;;;;;;;;;1696588;82;21099;-49
2022/11/17 01:18:34;;;;;;;0.80;0.60;;;;;;;;;;1693795;82;21050;-50
2022/11/17 01:21:06;;;;;;;0.70;0.60;;;;;;;;;;1700931;82;21076;-49
2022/11/17 01:23:34;;;;;;;1.10;0.87;;;;;;;;;;1695126;82;21138;-50
2022/11/17 01:26:03;;;;;;;0.80;0.70;;;;;;;;;;1691912;82;21852;-49
2022/11/17 01:28:29;;;;;;;0.87;0.70;;;;;;;;;;1682268;83;21121;-50
2022/11/17 01:30:58;;;;;;;1.00;0.77;;;;;;;;;;1681456;83;21071;-49
2022/11/17 01:33:24;;;;;;;0.90;0.80;;;;;;;;;;1682226;83;21698;-49
2022/11/17 01:35:51;;;;;;;1.10;0.70;;;;;;;;;;1685310;82;21066;-50
2022/11/17 01:38:17;;;;;;;0.80;0.70;;;;;;;;;;1687415;83;21848;-49
2022/11/17 01:40:43;;;;;;;0.80;0.77;;;;;;;;;;1679165;83;21063;-49
2022/11/17 01:43:09;;;;;;;1.40;0.90;;;;;;;;;;1681403;83;21318;-49
2022/11/17 01:45:36;;;;;;;0.87;0.80;;;;;;;;;;1683479;83;21051;-49
2022/11/17 01:48:02;;;;;;;1.17;1.07;;;;;;;;;;1682771;83;21075;-49
2022/11/17 01:50:35;;;;;;;1.40;0.90;;;;;;;;;;1683376;83;21834;-49
2022/11/17 01:53:08;;;;;;;1.13;1.03;;;;;;;;;;1677261;83;21085;-50
2022/11/17 01:55:40;;;;;;;1.67;1.10;;;;;;;;;;1682709;83;21039;-49
2022/11/17 01:58:08;;;;;;;1.10;0.90;;;;;;;;;;1681157;83;21067;-49
2022/11/17 02:00:34;;;;;;;1.50;1.13;;;;;;;;;;1681094;83;21538;-50
2022/11/17 02:03:00;;;;;;;1.23;1.07;;;;;;;;;;1681999;83;21976;-49
2022/11/17 02:05:34;;;;;;;1.43;1.33;;;;;;;;;;1644219;85;21061;-50
2022/11/17 02:08:02;;;;;;;1.70;0.97;;;;;;;;;;1630396;85;21041;-50
2022/11/17 02:10:29;;;;;;;1.30;1.13;;;;;;;;;;1679663;83;21046;-49
2022/11/17 02:12:55;;;;;;;1.30;1.10;;;;;;;;;;1679654;83;21055;-49
2022/11/17 02:15:23;;;;;;;1.70;1.30;;;;;;;;;;1671718;83;21092;-50
2022/11/17 02:17:49;;;;;;;1.60;1.23;;;;;;;;;;1684848;83;21935;-49
2022/11/17 02:20:19;;;;;;;1.33;1.10;;;;;;;;;;1676758;83;21540;-49
2022/11/17 02:23:04;;;;;;;1.30;1.20;;;;;;;;;;1683909;83;21062;-49
2022/11/17 02:25:38;;;;;;;2.30;2.00;;;;;;;;;;1685796;82;21149;-49
2022/11/17 02:28:13;;;;;;;2.73;1.40;;;;;;;;;;1692856;82;21831;-49
2022/11/17 02:31:00;;;;;;;2.23;1.63;;;;;;;;;;1698030;82;21350;-50
2022/11/17 02:33:51;;;;;;;2.27;1.70;;;;;;;;;;1695112;82;21144;-50
2022/11/17 02:36:33;;;;;;;2.90;1.83;;;;;;;;;;1691447;82;21134;-49
2022/11/17 02:39:15;;;;;;;2.43;1.57;;;;;;;;;;1695479;82;21067;-48
2022/11/17 02:41:48;;;;;;;1.43;1.33;;;;;;;;;;1684562;82;21848;-49
2022/11/17 02:44:21;;;;;;;2.33;1.70;;;;;;;;;;1696330;82;21557;-49
2022/11/17 02:46:50;;;;;;;2.63;1.63;;;;;;;;;;1693240;82;21588;-49
2022/11/17 02:49:21;;;;;;;2.03;1.83;;;;;;;;;;1676210;82;21131;-50
2022/11/17 02:51:49;;;;;;;2.20;2.00;;;;;;;;;;1700148;81;21053;-49
2022/11/17 02:54:16;;;;;;;1.60;1.50;;;;;;;;;;1695653;82;23163;-49
2022/11/17 02:56:42;;;;;;;1.57;1.47;;;;;;;;;;1694468;82;21578;-49
2022/11/17 02:59:09;;;;;;;1.50;1.40;;;;;;;;;;1700384;82;21045;-50
2022/11/17 03:01:57;;;;;;;1.40;1.20;;;;;;;;;;1695570;82;21117;-49
2022/11/17 03:04:50;;;;;;;2.03;1.73;;;;;;;;;;1674606;82;21076;-49
2022/11/17 03:07:48;;;;;;;2.23;1.87;;;;;;;;;;1685734;82;21999;-49
2022/11/17 03:10:18;;;;;;;1.87;1.43;;;;;;;;;;1695831;82;21069;-50
2022/11/17 03:12:54;;;;;;;3.40;1.40;;;;;;;;;;1690158;82;21076;-50
2022/11/17 03:15:42;;;;;;;2.63;2.13;;;;;;;;;;1690944;82;21068;-49
2022/11/17 03:18:12;;;;;;;2.57;1.47;;;;;;;;;;1694747;82;21068;-49
2022/11/17 03:20:41;;;;;;;3.90;1.50;;;;;;;;;;1696573;82;22670;-50
2022/11/17 03:23:13;;;;;;;3.10;2.30;;;;;;;;;;1628994;85;21111;-49
2022/11/17 03:25:40;;;;;;;2.97;2.20;;;;;;;;;;1638571;85;21501;-49
2022/11/17 03:28:07;;;;;;;2.63;2.43;;;;;;;;;;1657546;84;21622;-49
2022/11/17 03:30:34;;;;;;;2.00;1.90;;;;;;;;;;1654806;84;21065;-49
2022/11/17 03:33:04;;;;;;;1.90;1.73;;;;;;;;;;1683918;83;21840;-49
2022/11/17 03:35:32;;;;;;;3.67;1.40;;;;;;;;;;1683482;83;21107;-49
2022/11/17 03:38:02;;;;;;;3.67;2.83;;;;;;;;;;1682197;83;21073;-48
2022/11/17 03:40:29;;;;;;;2.17;1.83;;;;;;;;;;1677766;83;21473;-49
2022/11/17 03:42:58;;;;;;;1.93;1.83;;;;;;;;;;1686477;83;21096;-49
2022/11/17 03:45:27;;;;;;;2.93;2.10;;;;;;;;;;1660861;84;22488;-49
2022/11/17 03:47:56;;;;;;;2.10;2.00;;;;;;;;;;1663929;84;21049;-49
2022/11/17 03:50:26;;;;;;;3.00;2.00;;;;;;;;;;1683409;83;21073;-48
2022/11/17 03:52:52;;;;;;;2.07;1.87;;;;;;;;;;1684351;83;21050;-48
2022/11/17 03:55:18;;;;;;;2.17;1.97;;;;;;;;;;1680667;83;21289;-49
2022/11/17 03:57:53;;;;;;;3.20;2.13;;;;;;;;;;1682067;83;21923;-50
2022/11/17 04:00:19;;;;;;;3.33;3.07;;;;;;;;;;1687091;83;21064;-49
2022/11/17 04:02:48;;;;;;;2.30;2.10;;;;;;;;;;1678195;83;21602;-50
2022/11/17 04:05:15;;;;;;;2.73;2.53;;;;;;;;;;1680780;83;21623;-50
2022/11/17 04:07:43;;;;;;;2.47;2.27;;;;;;;;;;1681767;83;21616;-49
2022/11/17 04:10:15;;;;;;;2.67;2.40;;;;;;;;;;1679392;83;21954;-50
2022/11/17 04:18:15;;;;;;;2.10;1.90;;;;;;;;;;1679807;83;21109;-49
2022/11/17 04:20:42;;;;;;;2.73;2.53;;;;;;;;;;1678329;83;21103;-49
2022/11/17 04:23:12;;;;;;;2.53;2.33;;;;;;;;;;1682194;83;23093;-49
2022/11/17 04:28:37;;;;;;;3.40;2.20;;;;;;;;;;1678107;83;21073;-50
2022/11/17 04:31:05;;;;;;;3.50;3.20;;;;;;;;;;1678686;83;21073;-49
2022/11/17 04:33:31;;;;;;;3.90;2.60;;;;;;;;;;1680815;83;21115;-50
2022/11/17 04:35:57;;;;;;;3.37;2.30;;;;;;;;;;1682322;83;21864;-49
2022/11/17 04:38:23;;;;;;;2.93;2.63;;;;;;;;;;1683895;83;21272;-49
2022/11/17 04:43:38;;;;;;;3.50;3.20;;;;;;;;;;1683397;83;21500;-50
2022/11/17 04:46:05;;;;;;;3.83;3.10;;;;;;;;;;1678395;83;21065;-49
2022/11/17 04:48:31;;;;;;;3.73;3.37;;;;;;;;;;1682462;83;21859;-49
2022/11/17 04:50:57;;;;;;;4.23;3.90;;;;;;;;;;1682595;83;21066;-50
2022/11/17 04:53:23;;;;;;;4.80;2.93;;;;;;;;;;1679713;83;21598;-49
2022/11/17 04:55:50;;;;;;;3.43;3.13;;;;;;;;;;1681801;83;21086;-49
2022/11/17 04:58:16;;;;;;;5.77;3.10;;;;;;;;;;1659814;84;21074;-50
2022/11/17 05:00:42;;;;;;;5.00;2.37;;;;;;;;;;1682742;83;21759;-49
2022/11/17 05:03:09;;;;;;;5.40;3.80;;;;;;;;;;1680270;83;22288;-50
2022/11/17 05:05:35;;;;;;;3.40;2.53;;;;;;;;;;1681835;83;21064;-49
2022/11/17 05:08:02;;;;;;;2.83;2.37;;;;;;;;;;1683535;83;21113;-49
2022/11/17 05:18:27;;;;;;;3.50;2.92;;;;;;;;;;1679069;83;20802;-49
2022/11/17 05:20:53;;;;;;;4.70;3.20;;;;;;;;;;1685157;83;21053;-49
2022/11/17 05:26:04;;;;;;;;;;;;;;;;;;1683751;83;21894;-48
2022/11/17 05:28:31;;;;;;;4.43;3.53;;;;;;;;;;1647586;84;20174;-50
2022/11/17 05:30:57;;;;;;;6.93;4.97;;;;;;;;;;1711299;82;21065;-49
2022/11/17 05:33:23;;;;;;;4.67;3.63;;;;;;;;;;1711317;82;21090;-49
2022/11/17 05:35:49;;;;;;;3.50;3.20;;;;;;;;;;1709752;82;21110;-49
2022/11/17 05:38:16;;;;;;;4.80;4.37;;;;;;;;;;1712144;82;21824;-48
2022/11/17 05:40:42;;;;;;;4.43;4.03;;;;;;;;;;1706462;82;21081;-49
2022/11/17 05:43:09;;;;;;;4.93;4.43;;;;;;;;;;1713110;82;21079;-49
2022/11/17 05:45:36;;;;;;;4.63;4.07;;;;;;;;;;1708368;82;21629;-48
2022/11/17 05:48:03;;;;;;;5.83;5.17;;;;;;;;;;1710569;82;21113;-49
2022/11/17 05:50:30;;;;;;;4.77;4.37;;;;;;;;;;1707313;82;21968;-50
2022/11/17 05:52:58;;;;;;;4.60;3.70;;;;;;;;;;1702710;82;21489;-49
2022/11/17 05:55:26;;;;;;;5.77;4.57;;;;;;;;;;1705808;82;21106;-49
2022/11/17 05:57:54;;;;;;;4.97;4.40;;;;;;;;;;1708983;82;21092;-49
2022/11/17 06:00:20;;;;;;;4.80;4.30;;;;;;;;;;1709444;82;21074;-49
2022/11/17 06:02:49;;;;;;;5.67;5.13;;;;;;;;;;1709452;82;24136;-48
2022/11/17 06:05:15;;;;;;;6.70;5.40;;;;;;;;;;1711440;82;21062;-49
2022/11/17 06:07:43;;;;;;;5.83;5.23;;;;;;;;;;1707884;82;21050;-49
2022/11/17 06:10:09;;;;;;;7.87;5.63;;;;;;;;;;1706352;82;21102;-49
2022/11/17 06:12:35;;;;;;;7.63;4.70;;;;;;;;;;1711064;82;20966;-49
2022/11/17 06:15:02;;;;;;;6.43;5.43;;;;;;;;;;1706665;82;22472;-49
2022/11/17 06:17:35;;;;;;;7.07;5.30;;;;;;;;;;1711426;82;21055;-49
2022/11/17 06:20:19;;;;;;;5.67;4.53;;;;;;;;;;1707628;82;21096;-49
2022/11/17 06:22:45;;;;;;;6.75;5.55;;;;;;;;;;1708902;82;21370;-48
2022/11/17 06:25:11;;;;;;;8.23;6.67;;;;;;;;;;1715333;82;21539;-48
2022/11/17 06:27:38;;;;;;;7.10;5.57;;;;;;;;;;1697138;82;21840;-48
2022/11/17 06:30:05;;;;;;;6.60;5.83;;;;;;;;;;1671213;83;21037;-48
2022/11/17 06:32:32;;;;;;;9.93;7.27;;;;;;;;;;1679737;83;21096;-48
2022/11/17 06:34:58;;;;;;;12.13;8.77;;;;;;;;;;1682835;83;21061;-48
2022/11/17 06:37:24;;;;;;;16.07;10.13;;;;;;;;;;1679336;83;21167;-48
2022/11/17 06:39:50;;;;;;;8.73;7.00;;;;;;;;;;1672651;83;21894;-48
2022/11/17 06:42:17;;;;;;;14.13;8.20;;;;;;;;;;1680260;83;21184;-49
2022/11/17 06:44:43;;;;;;;9.83;7.30;;;;;;;;;;1681614;83;21025;-48
2022/11/17 06:47:10;;;;;;;12.00;7.20;;;;;;;;;;1621847;86;21075;-48
2022/11/17 06:49:37;;;;;;;10.30;7.27;;;;;;;;;;1647612;85;22524;-48
2022/11/17 06:52:03;;;;;;;11.93;8.10;;;;;;;;;;1646571;85;21830;-48
2022/11/17 06:54:30;;;;;;;10.80;7.33;;;;;;;;;;1626235;86;21228;-48
2022/11/17 06:56:56;;;;;;;11.43;8.53;;;;;;;;;;1625816;86;21166;-48
2022/11/17 06:59:22;;;;;;;8.03;6.20;;;;;;;;;;1627501;86;21070;-48
2022/11/17 07:01:49;;;;;;;7.13;5.60;;;;;;;;;;1628057;86;21502;-48
2022/11/17 07:04:15;;;;;;;5.50;4.53;;;;;;;;;;1645088;85;21848;-47
2022/11/17 07:06:43;;;;;;;5.27;4.77;;;;;;;;;;1620657;86;21356;-48
2022/11/17 07:09:10;;;;;;;7.50;5.23;;;;;;;;;;1628757;86;21094;-48
2022/11/17 07:11:36;;;;;;;8.60;5.90;;;;;;;;;;1624308;86;21863;-47
2022/11/17 07:14:04;;;;;;;8.43;6.00;;;;;;;;;;1617066;86;22084;-47
2022/11/17 07:16:31;;;;;;;10.87;7.17;;;;;;;;;;1624785;86;21996;-47
2022/11/17 07:18:58;;;;;;;10.33;8.00;;;;;;;;;;1625262;86;21235;-48
2022/11/17 07:21:24;;;;;;;11.03;7.17;;;;;;;;;;1625823;86;22507;-47
2022/11/17 07:23:51;;;;;;;11.17;7.43;;;;;;;;;;1624510;86;21121;-47
2022/11/17 07:26:17;;;;;;;7.97;5.97;;;;;;;;;;1627210;86;21141;-47
2022/11/17 07:28:43;;;;;;;7.23;5.97;;;;;;;;;;1637841;85;21805;-47
2022/11/17 07:31:10;;;;;;;7.10;5.87;;;;;;;;;;1629629;86;21085;-47
2022/11/17 07:33:37;;;;;;;8.13;5.30;;;;;;;;;;1681961;83;21558;-47
2022/11/17 07:36:09;;;;;;;10.03;7.33;;;;;;;;;;1685317;83;21630;-48
2022/11/17 07:38:37;;;;;;;15.33;8.67;;;;;;;;;;1677898;83;21461;-47
2022/11/17 07:41:04;;;;;;;11.43;7.23;;;;;;;;;;1680357;83;21846;-47
2022/11/17 07:43:30;;;;;;;12.10;8.07;;;;;;;;;;1683150;83;21031;-48
2022/11/17 07:45:56;;;;;;;11.27;7.90;;;;;;;;;;1664356;83;21029;-47
2022/11/17 07:48:24;;;;;;;9.10;7.13;;;;;;;;;;1679977;83;21081;-47
2022/11/17 07:50:50;;;;;;;12.10;6.03;;;;;;;;;;1679330;83;21101;-47
2022/11/17 07:53:16;;;;;;;9.53;6.10;;;;;;;;;;1682709;83;21826;-47
2022/11/17 07:55:43;;;;;;;13.30;7.57;;;;;;;;;;1680506;83;21059;-47
2022/11/17 07:58:10;;;;;;;9.47;6.63;;;;;;;;;;1686833;83;21092;-46
2022/11/17 08:00:36;;;;;;;10.37;6.27;;;;;;;;;;1682469;83;21658;-47
2022/11/17 08:03:03;;;;;;;5.60;4.93;;;;;;;;;;1678624;83;21092;-49
2022/11/17 08:05:34;;;;;;;6.73;5.23;;;;;;;;;;1681642;83;21890;-49
2022/11/17 08:08:00;;;;;;;14.27;8.20;;;;;;;;;;1677250;83;21160;-49
2022/11/17 08:10:30;;;;;;;15.57;8.07;;;;;;;;;;1681862;83;21060;-46
2022/11/17 08:12:55;;;;;;;16.27;9.07;;;;;;;;;;1685902;83;21050;-46
2022/11/17 08:15:22;;;;;;;14.77;8.67;;;;;;;;;;1680307;83;21113;-46
2022/11/17 08:17:52;;;;;;;12.37;6.50;;;;;;;;;;1685706;83;21831;-46
2022/11/17 08:20:19;;;;;;;7.00;5.77;;;;;;;;;;1688829;83;21051;-46
2022/11/17 08:22:45;;;;;;;7.73;6.50;;;;;;;;;;1678169;83;21511;-46
2022/11/17 08:25:12;;;;;;;6.57;4.87;;;;;;;;;;1679190;83;21559;-48
2022/11/17 08:27:39;;;;;;;5.27;4.77;;;;;;;;;;1688875;83;21103;-48
2022/11/17 08:30:06;;;;;;;8.70;5.03;;;;;;;;;;1692255;82;21807;-48
2022/11/17 08:32:34;;;;;;;9.40;5.53;;;;;;;;;;1684362;82;21574;-48
2022/11/17 08:35:03;;;;;;;6.43;4.60;;;;;;;;;;1685599;82;21683;-48
2022/11/17 08:37:29;;;;;;;6.40;5.07;;;;;;;;;;1696225;82;21126;-48
2022/11/17 08:39:55;;;;;;;5.87;5.27;;;;;;;;;;1691304;82;21072;-48
2022/11/17 08:42:22;;;;;;;7.03;4.67;;;;;;;;;;1693453;82;23865;-49
2022/11/17 08:44:48;;;;;;;6.37;5.30;;;;;;;;;;1698997;82;21045;-48
2022/11/17 08:47:15;;;;;;;6.73;5.23;;;;;;;;;;1691081;82;22531;-48
2022/11/17 08:49:41;;;;;;;8.03;4.37;;;;;;;;;;1688269;82;21067;-48
2022/11/17 08:52:08;;;;;;;7.90;6.60;;;;;;;;;;1691883;82;21056;-48
2022/11/17 08:54:34;;;;;;;8.90;6.30;;;;;;;;;;1683314;81;22664;-48
2022/11/17 08:57:00;;;;;;;8.33;6.30;;;;;;;;;;1690593;82;21084;-48
2022/11/17 08:59:27;;;;;;;9.23;6.53;;;;;;;;;;1691136;82;21402;-48
2022/11/17 09:01:54;;;;;;;10.03;6.97;;;;;;;;;;1693393;82;21855;-48
2022/11/17 09:04:20;;;;;;;8.97;5.77;;;;;;;;;;1688934;82;21093;-48
2022/11/17 09:06:47;;;;;;;11.63;5.93;;;;;;;;;;1696993;82;23236;-48
2022/11/17 09:09:13;;;;;;;10.80;7.93;;;;;;;;;;1692224;82;22618;-48
2022/11/17 09:11:40;;;;;;;10.57;7.47;;;;;;;;;;1690717;82;21048;-49
2022/11/17 09:14:06;;;;;;;10.53;6.63;;;;;;;;;;1687175;82;21108;-48
2022/11/17 09:16:33;;;;;;;10.70;7.67;;;;;;;;;;1687834;82;21148;-48
2022/11/17 09:18:59;;;;;;;10.40;7.13;;;;;;;;;;1670150;82;22672;-48
2022/11/17 09:21:26;;;;;;;9.17;6.63;;;;;;;;;;1686419;82;21064;-48
2022/11/17 09:23:53;;;;;;;9.73;7.30;;;;;;;;;;1685485;82;21042;-48
2022/11/17 09:26:19;;;;;;;7.60;6.23;;;;;;;;;;1691106;82;21054;-48
2022/11/17 09:28:46;;;;;;;7.47;5.93;;;;;;;;;;1691393;82;21540;-49
2022/11/17 09:31:15;;;;;;;8.97;6.23;;;;;;;;;;1679779;82;21840;-48
2022/11/17 09:33:42;;;;;;;13.80;7.13;;;;;;;;;;1679407;83;21094;-48
2022/11/17 09:36:09;;;;;;;10.10;5.80;;;;;;;;;;1684632;83;21160;-49
2022/11/17 09:38:36;;;;;;;10.43;6.80;;;;;;;;;;1676321;83;21105;-46
2022/11/17 09:41:26;;;;;;;7.93;5.43;;;;;;;;;;1679425;83;21365;-47
2022/11/17 09:44:18;;;;;;;8.10;6.40;;;;;;;;;;1656562;83;21392;-47
2022/11/17 09:46:51;;;;;;;11.43;6.97;;;;;;;;;;1681428;83;21062;-48
2022/11/17 09:49:57;;;;;;;10.33;6.40;;;;;;;;;;1681396;83;21096;-46
2022/11/17 09:52:30;;;;;;;11.53;7.83;;;;;;;;;;1679980;83;22188;-48
2022/11/17 09:54:59;;;;;;;8.63;6.83;;;;;;;;;;1681946;82;21080;-47
2022/11/17 09:57:29;;;;;;;9.20;5.20;;;;;;;;;;1677003;83;21748;-47
2022/11/17 10:00:01;;;;;;;11.83;6.60;;;;;;;;;;1678864;83;21066;-47
2022/11/17 10:02:30;;;;;;;6.92;5.33;;;;;;;;;;1677891;82;25862;-46
2022/11/17 10:04:56;;;;;;;8.70;6.50;;;;;;;;;;1676937;83;21065;-46
2022/11/17 10:07:22;;;;;;;6.37;5.73;;;;;;;;;;1682203;83;22533;-46
2022/11/17 10:09:48;;;;;;;8.70;5.80;;;;;;;;;;1679096;83;21857;-46
2022/11/17 10:12:18;;;;;;;8.70;6.23;;;;;;;;;;1681139;83;21109;-46
2022/11/17 10:14:46;;;;;;;10.10;7.60;;;;;;;;;;1679359;83;21844;-46
2022/11/17 10:17:14;;;;;;;14.87;9.40;;;;;;;;;;1680079;83;21173;-46
2022/11/17 10:19:41;;;;;;;16.20;10.53;;;;;;;;;;1674643;83;21090;-46
2022/11/17 10:22:20;;;;;;;16.53;9.97;;;;;;;;;;1678271;83;21833;-46
2022/11/17 10:24:49;;;;;;;14.93;8.03;;;;;;;;;;1680943;83;20956;-46
2022/11/17 10:27:25;;;;;;;13.90;9.73;;;;;;;;;;1679281;83;21440;-46
2022/11/17 10:29:59;;;;;;;9.97;7.53;;;;;;;;;;1679486;82;21326;-46
2022/11/17 10:32:29;;;;;;;11.40;8.00;;;;;;;;;;1691197;82;21521;-46
2022/11/17 10:34:57;;;;;;;10.60;7.37;;;;;;;;;;1689889;82;23370;-46
2022/11/17 10:37:28;;;;;;;14.47;9.03;;;;;;;;;;1684012;82;21077;-46
2022/11/17 10:43:31;;;;;;;12.70;9.10;;;;;;;-0.41;100.00;98678.93;1757241;79;27438;-47
2022/11/17 10:46:06;;;;;;;14.43;9.37;;;;;;;-144.06;100.00;116433.64;1726176;81;21068;-48
2022/11/17 22:58:57;;;;;;;5.17;2.70;;;;;;;;;;1761611;78;27399;-46
2022/11/17 23:01:24;;;;;;;5.73;2.63;;;;;;;;;;1741029;80;21137;-46
2022/11/17 23:03:50;;;;;;;2.80;1.80;;;;;;;;;;1733571;80;21756;-45
2022/11/17 23:06:16;;;;;;;6.27;2.33;;;;;;;;;;1739577;80;21088;-45
2022/11/17 23:08:42;;;;;;;3.93;2.07;;;;;;;;;;1740963;80;21502;-45
2022/11/17 23:11:09;;;;;;;2.80;1.90;;;;;;;;;;1742056;80;21526;-43
2022/11/17 23:13:36;;;;;;;4.57;1.63;;;;;;;;;;1722715;81;21541;-44
2022/11/17 23:16:03;;;;;;;4.50;1.30;;;;;;;;;;1713257;81;23139;-44
2022/11/17 23:18:30;;;;;;;5.77;1.40;;;;;;;;;;1718191;81;21245;-45
2022/11/17 23:21:03;;;;;;;3.07;2.23;;;;;;;;;;1713113;82;21391;-44
2022/11/17 23:23:33;;;;;;;6.37;3.37;;;;;;;;;;1717009;81;21789;-44
2022/11/17 23:26:08;;;;;;;6.73;4.40;;;;;;;;;;1714306;81;21047;-43
2022/11/17 23:28:35;;;;;;;7.80;4.43;;;;;;;;;;1712008;82;22526;-42
2022/11/17 23:31:04;;;;;;;6.47;3.67;;;;;;;;;;1716385;81;21329;-42
2022/11/17 23:33:34;;;;;;;4.77;2.00;;;;;;;;;;1716673;81;21049;-43
2022/11/17 23:36:01;;;;;;;6.00;2.23;;;;;;;;;;1716893;82;21550;-43
2022/11/17 23:38:30;;;;;;;4.83;1.40;;;;;;;;;;1718195;81;21526;-43
2022/11/17 23:41:04;;;;;;;4.30;2.03;;;;;;;;;;1718095;81;22450;-43
2022/11/17 23:43:30;;;;;;;3.92;1.77;;;;;;;;;;1714287;81;21692;-45
2022/11/17 23:46:02;;;;;;;2.57;1.60;;;;;;;;;;1715988;81;21080;-44
2022/11/17 23:48:29;;;;;;;5.13;2.33;;;;;;;;;;1716727;81;21479;-44
2022/11/17 23:50:55;;;;;;;6.90;3.07;;;;;;;;;;1717331;81;21073;-43
2022/11/17 23:53:21;;;;;;;5.70;2.13;;;;;;;;;;1718876;81;21847;-43
2022/11/17 23:55:54;;;;;;;4.20;1.97;;;;;;;;;;1689647;83;21113;-44
2022/11/17 23:58:20;;;;;;;3.20;2.03;;;;;;;;;;1649598;85;21098;-43
